Time;durP1;ratioP1;P1;durP2;ratioP2;P2;SDS_P1;SDS_P2;PMS_P1;PMS_P2;Temp;Humidity;BMP_temperature;BMP_pressure;BME280_temperature;BME280_humidity;BME280_pressure;Samples;Min_cycle;Max_cycle;Signal;HPM_P1;HPM_P2
2022/03/21 00:00:50;;;;;;;14.13;7.63;;;;;;;;;;5022991;28;20121;-93
2022/03/21 00:03:28;;;;;;;14.20;7.60;;;;;;;;;;5055057;28;20102;-93
2022/03/21 00:05:58;;;;;;;12.57;7.22;;;;;;;;;;5059100;28;20046;-94
2022/03/21 00:08:27;;;;;;;20.55;8.35;;;;;;;;;;5076911;28;20055;-93
2022/03/21 00:10:55;;;;;;;13.75;6.55;;;;;;;;;;5071510;28;20048;-92
2022/03/21 00:13:26;;;;;;;18.00;7.75;;;;;;;;;;5050912;28;20132;-93
2022/03/21 00:15:55;;;;;;;16.10;7.60;;;;;;;;;;5060011;28;20399;-94
2022/03/21 00:18:25;;;;;;;14.57;7.28;;;;;;;;;;5052107;28;20083;-85
2022/03/21 00:20:53;;;;;;;14.68;7.60;;;;;;;;;;5057501;28;20499;-85
2022/03/21 00:23:22;;;;;;;14.80;6.65;;;;;;;;;;5044352;28;20032;-92
2022/03/21 00:25:50;;;;;;;14.77;7.15;;;;;;;;;;5049260;28;20044;-92
2022/03/21 00:28:18;;;;;;;14.13;6.85;;;;;;;;;;5062827;28;20051;-92
2022/03/21 00:30:46;;;;;;;13.40;7.28;;;;;;;;;;5060252;28;20131;-92
2022/03/21 00:33:14;;;;;;;15.20;7.50;;;;;;;;;;5061207;28;20149;-92
2022/03/21 00:35:42;;;;;;;12.50;7.32;;;;;;;;;;5063382;28;20042;-93
2022/03/21 00:38:14;;;;;;;15.95;8.25;;;;;;;;;;5062562;28;20068;-93
2022/03/21 00:40:45;;;;;;;14.38;7.32;;;;;;;;;;5066023;28;20036;-92
2022/03/21 00:43:21;;;;;;;15.50;7.15;;;;;;;;;;5069733;28;20103;-91
2022/03/21 00:45:53;;;;;;;13.68;7.35;;;;;;;;;;5069027;28;20041;-91
2022/03/21 00:48:22;;;;;;;14.20;6.95;;;;;;;;;;5054013;28;20119;-92
2022/03/21 00:50:52;;;;;;;14.25;7.43;;;;;;;;;;5040967;28;20052;-85
2022/03/21 00:53:21;;;;;;;19.58;7.65;;;;;;;;;;5052932;28;20037;-86
2022/03/21 00:55:49;;;;;;;14.23;7.30;;;;;;;;;;5060204;28;20051;-93
2022/03/21 00:58:17;;;;;;;20.75;7.85;;;;;;;;;;5033651;28;20056;-94
2022/03/21 01:00:45;;;;;;;15.48;7.85;;;;;;;;;;5039552;28;20091;-94
2022/03/21 01:03:15;;;;;;;15.02;8.18;;;;;;;;;;5036177;28;20821;-94
2022/03/21 01:05:47;;;;;;;11.98;7.32;;;;;;;;;;5060582;28;20052;-94
2022/03/21 01:08:17;;;;;;;15.88;7.82;;;;;;;;;;5053247;28;20121;-93
2022/03/21 01:10:47;;;;;;;14.77;8.02;;;;;;;;;;5078282;28;20126;-94
2022/03/21 01:13:18;;;;;;;13.85;7.90;;;;;;;;;;5018869;28;20058;-93
2022/03/21 01:15:49;;;;;;;15.52;8.00;;;;;;;;;;5069487;28;20403;-93
2022/03/21 01:18:21;;;;;;;18.48;7.63;;;;;;;;;;5056030;28;20040;-93
2022/03/21 01:20:48;;;;;;;15.35;6.75;;;;;;;;;;5048912;28;20049;-93
2022/03/21 01:23:16;;;;;;;15.55;7.85;;;;;;;;;;5050112;28;20056;-93
2022/03/21 01:25:44;;;;;;;15.77;7.68;;;;;;;;;;5068990;28;20090;-93
2022/03/21 01:28:13;;;;;;;15.23;5.68;;;;;;;;;;5043316;28;20043;-93
2022/03/21 01:30:40;;;;;;;16.60;7.78;;;;;;;;;;5062260;28;20036;-93
2022/03/21 01:33:08;;;;;;;18.23;7.13;;;;;;;;;;5059817;28;20041;-93
2022/03/21 01:35:36;;;;;;;15.50;7.28;;;;;;;;;;5051469;28;20052;-92
2022/03/21 01:38:04;;;;;;;14.68;7.25;;;;;;;;;;5064086;28;20037;-92
2022/03/21 01:40:32;;;;;;;17.80;7.25;;;;;;;;;;5048160;28;20142;-92
2022/03/21 01:43:00;;;;;;;15.57;7.25;;;;;;;;;;5087466;28;20040;-93
2022/03/21 01:45:28;;;;;;;13.40;7.63;;;;;;;;;;5064046;28;20474;-93
2022/03/21 01:47:56;;;;;;;15.90;6.93;;;;;;;;;;5062978;28;20134;-93
2022/03/21 01:50:24;;;;;;;14.27;6.80;;;;;;;;;;5060716;28;20040;-93
2022/03/21 01:55:43;;;;;;;14.27;7.32;;;;;;;;;;5056222;28;20055;-93
2022/03/21 01:55:44;;;;;;;15.85;7.63;;;;;;;;;;5080297;28;20032;-93
2022/03/21 01:58:13;;;;;;;15.27;7.45;;;;;;;;;;5077426;28;20052;-93
2022/03/21 02:00:41;;;;;;;16.95;7.88;;;;;;;;;;5078425;28;20449;-93
2022/03/21 02:03:11;;;;;;;14.50;7.28;;;;;;;;;;5062211;28;20040;-91
2022/03/21 02:05:40;;;;;;;15.15;7.07;;;;;;;;;;5053557;28;20044;-91
2022/03/21 02:08:08;;;;;;;14.35;7.03;;;;;;;;;;5071746;28;20060;-91
2022/03/21 02:10:36;;;;;;;12.85;6.95;;;;;;;;;;5070780;28;20641;-91
2022/03/21 02:13:06;;;;;;;14.70;5.93;;;;;;;;;;5073339;28;20040;-91
2022/03/21 02:15:35;;;;;;;13.75;7.45;;;;;;;;;;5060559;28;20067;-92
2022/03/21 02:18:08;;;;;;;14.25;7.18;;;;;;;;;;5064990;28;22206;-92
2022/03/21 02:20:40;;;;;;;15.45;7.15;;;;;;;;;;5067097;28;20032;-92
2022/03/21 02:23:38;;;;;;;15.07;6.85;;;;;;;;;;5034966;28;20422;-91
2022/03/21 02:26:08;;;;;;;15.02;7.20;;;;;;;;;;5066355;28;20125;-92
2022/03/21 02:28:38;;;;;;;15.18;7.63;;;;;;;;;;5076733;28;20062;-92
2022/03/21 02:31:06;;;;;;;15.75;7.55;;;;;;;;;;5066875;28;20029;-92
2022/03/21 02:33:34;;;;;;;17.13;7.63;;;;;;;;;;5070644;28;20525;-91
2022/03/21 02:36:03;;;;;;;15.57;7.18;;;;;;;;;;5035565;28;20055;-91
2022/03/21 02:38:32;;;;;;;14.55;6.95;;;;;;;;;;5069968;28;20036;-90
2022/03/21 02:41:01;;;;;;;14.98;7.15;;;;;;;;;;5077190;28;20039;-90
2022/03/21 02:43:28;;;;;;;14.57;7.43;;;;;;;;;;5074451;28;20065;-90
2022/03/21 02:46:06;;;;;;;15.73;7.70;;;;;;;;;;5067097;28;20048;-94
2022/03/21 02:48:34;;;;;;;16.55;7.53;;;;;;;;;;5042389;28;20445;-94
2022/03/21 02:51:02;;;;;;;14.35;7.68;;;;;;;;;;5063663;28;20041;-94
2022/03/21 02:53:32;;;;;;;15.18;7.75;;;;;;;;;;5087513;28;20028;-93
2022/03/21 02:56:00;;;;;;;15.25;7.82;;;;;;;;;;5079632;28;20036;-93
2022/03/21 02:58:28;;;;;;;15.38;7.13;;;;;;;;;;5049855;28;20047;-93
2022/03/21 03:01:14;;;;;;;14.70;7.75;;;;;;;;;;5081360;28;20497;-93
2022/03/21 03:03:43;;;;;;;16.08;7.70;;;;;;;;;;5051095;28;20047;-94
2022/03/21 03:06:11;;;;;;;15.43;6.75;;;;;;;;;;5060108;28;20040;-94
2022/03/21 03:08:41;;;;;;;13.98;6.03;;;;;;;;;;5048763;28;20033;-94
2022/03/21 03:11:09;;;;;;;20.80;7.97;;;;;;;;;;5062369;28;20086;-94
2022/03/21 03:13:36;;;;;;;17.40;7.40;;;;;;;;;;5075953;28;20119;-94
2022/03/21 03:16:05;;;;;;;16.80;7.60;;;;;;;;;;5056058;28;20408;-93
2022/03/21 03:18:32;;;;;;;15.52;6.60;;;;;;;;;;5060696;28;20117;-93
2022/03/21 03:21:00;;;;;;;18.88;7.93;;;;;;;;;;5058802;28;20045;-93
2022/03/21 03:23:32;;;;;;;15.02;7.20;;;;;;;;;;5023542;28;20040;-94
2022/03/21 03:26:04;;;;;;;13.93;7.40;;;;;;;;;;5058890;28;20524;-93
2022/03/21 03:28:32;;;;;;;13.82;7.03;;;;;;;;;;5038737;28;20041;-93
2022/03/21 03:31:14;;;;;;;14.85;7.47;;;;;;;;;;5039212;28;20044;-94
2022/03/21 03:33:45;;;;;;;14.50;7.32;;;;;;;;;;5057442;28;20132;-94
2022/03/21 03:36:15;;;;;;;14.27;7.18;;;;;;;;;;5058700;28;20036;-94
2022/03/21 03:38:44;;;;;;;18.05;7.57;;;;;;;;;;5055043;28;20067;-93
2022/03/21 03:41:13;;;;;;;18.33;7.25;;;;;;;;;;5063206;28;20039;-94
2022/03/21 03:43:43;;;;;;;14.32;7.70;;;;;;;;;;5061935;28;20044;-94
2022/03/21 03:46:11;;;;;;;15.10;7.53;;;;;;;;;;5074425;28;20101;-94
2022/03/21 03:48:38;;;;;;;16.95;7.60;;;;;;;;;;5063876;28;20048;-94
2022/03/21 03:51:06;;;;;;;14.80;7.47;;;;;;;;;;5061035;28;20040;-94
2022/03/21 03:53:34;;;;;;;16.08;8.00;;;;;;;;;;5059910;28;20036;-93
2022/03/21 03:56:02;;;;;;;13.85;7.30;;;;;;;;;;5075137;28;20044;-93
2022/03/21 03:58:30;;;;;;;13.38;6.93;;;;;;;;;;5049481;28;20032;-94
2022/03/21 04:00:59;;;;;;;15.93;8.23;;;;;;;;;;5067723;28;20051;-94
2022/03/21 04:03:47;;;;;;;16.08;7.68;;;;;;;;;;5065528;28;20036;-94
2022/03/21 04:06:16;;;;;;;13.32;6.63;;;;;;;;;;5072582;28;20409;-94
2022/03/21 04:08:46;;;;;;;17.27;7.32;;;;;;;;;;5052856;28;20044;-94
2022/03/21 04:11:15;;;;;;;15.85;7.38;;;;;;;;;;5069450;28;20048;-94
2022/03/21 04:13:43;;;;;;;19.05;7.70;;;;;;;;;;5080879;28;20048;-94
2022/03/21 04:16:10;;;;;;;15.52;7.32;;;;;;;;;;5082482;28;20041;-94
2022/03/21 04:18:38;;;;;;;11.48;6.95;;;;;;;;;;5056650;28;20091;-94
2022/03/21 04:21:27;;;;;;;17.13;7.75;;;;;;;;;;5064046;28;20028;-95
2022/03/21 04:23:56;;;;;;;11.32;6.30;;;;;;;;;;5034445;28;20030;-93
2022/03/21 04:26:25;;;;;;;20.83;7.40;;;;;;;;;;5078328;28;20090;-93
2022/03/21 04:28:52;;;;;;;13.98;7.25;;;;;;;;;;5057158;28;20055;-93
2022/03/21 04:31:20;;;;;;;13.88;7.05;;;;;;;;;;5074152;28;20094;-93
2022/03/21 04:33:48;;;;;;;13.35;5.93;;;;;;;;;;5047374;28;20147;-93
2022/03/21 04:36:18;;;;;;;15.90;7.65;;;;;;;;;;5080564;28;20086;-94
2022/03/21 04:38:46;;;;;;;13.13;7.05;;;;;;;;;;5074404;28;20051;-94
2022/03/21 04:41:15;;;;;;;16.30;7.43;;;;;;;;;;5059421;28;20043;-94
2022/03/21 04:43:42;;;;;;;16.30;7.60;;;;;;;;;;5059672;28;20052;-94
2022/03/21 04:46:10;;;;;;;13.70;7.20;;;;;;;;;;5049396;28;20041;-94
2022/03/21 04:48:38;;;;;;;16.15;7.47;;;;;;;;;;5043004;28;20128;-94
2022/03/21 04:51:06;;;;;;;16.40;7.30;;;;;;;;;;5067918;28;20461;-94
2022/03/21 04:53:34;;;;;;;14.65;6.32;;;;;;;;;;5083452;28;20063;-93
2022/03/21 04:56:03;;;;;;;13.35;7.25;;;;;;;;;;5068106;28;20032;-94
2022/03/21 04:58:30;;;;;;;19.02;7.80;;;;;;;;;;5045016;28;20409;-93
2022/03/21 05:00:59;;;;;;;17.35;7.53;;;;;;;;;;5050695;28;20417;-93
2022/03/21 05:03:26;;;;;;;16.65;7.97;;;;;;;;;;5068777;28;20040;-94
2022/03/21 05:05:54;;;;;;;15.68;7.72;;;;;;;;;;5063071;28;20032;-94
2022/03/21 05:08:22;;;;;;;14.32;7.50;;;;;;;;;;5066549;28;20477;-93
2022/03/21 05:10:50;;;;;;;15.40;7.88;;;;;;;;;;5078329;28;20049;-94
2022/03/21 05:13:18;;;;;;;15.00;7.55;;;;;;;;;;5056112;28;20127;-94
2022/03/21 05:15:46;;;;;;;12.13;5.50;;;;;;;;;;5065462;28;20059;-94
2022/03/21 05:18:15;;;;;;;15.40;7.45;;;;;;;;;;5076885;28;20102;-93
2022/03/21 05:20:43;;;;;;;15.95;7.07;;;;;;;;;;5047239;28;20612;-93
2022/03/21 05:31:49;;;;;;;14.68;6.72;;;;;;;;;;5069424;28;20056;-94
2022/03/21 05:37:05;;;;;;;15.50;7.47;;;;;;;;;;5081027;28;20040;-94
2022/03/21 05:39:32;;;;;;;17.58;6.72;;;;;;;;;;5049906;28;20037;-93
2022/03/21 05:42:00;;;;;;;18.00;7.57;;;;;;;;;;5024211;28;20102;-95
2022/03/21 05:44:35;;;;;;;15.75;7.93;;;;;;;;;;5039794;28;20055;-93
2022/03/21 05:47:02;;;;;;;13.73;7.18;;;;;;;;;;5032441;28;20041;-93
2022/03/21 05:49:30;;;;;;;13.60;7.28;;;;;;;;;;5062117;28;20032;-93
2022/03/21 05:51:58;;;;;;;14.07;6.45;;;;;;;;;;5044154;28;20048;-94
2022/03/21 05:54:26;;;;;;;21.55;8.52;;;;;;;;;;5023837;28;20041;-94
2022/03/21 05:56:55;;;;;;;13.30;6.47;;;;;;;;;;5066236;28;20048;-94
2022/03/21 06:02:08;;;;;;;21.25;8.02;;;;;;;;;;5060362;28;20050;-93
2022/03/21 06:04:36;;;;;;;12.18;5.97;;;;;;;;;;5027878;28;20041;-85
2022/03/21 06:07:04;;;;;;;14.07;7.00;;;;;;;;;;5047041;28;20363;-85
2022/03/21 06:09:32;;;;;;;15.77;7.70;;;;;;;;;;5063574;28;20106;-84
2022/03/21 06:12:00;;;;;;;20.00;6.45;;;;;;;;;;5062329;28;20045;-85
2022/03/21 06:14:28;;;;;;;18.25;7.93;;;;;;;;;;5062589;28;20478;-85
2022/03/21 06:16:56;;;;;;;14.07;7.15;;;;;;;;;;5061292;28;20099;-85
2022/03/21 06:19:24;;;;;;;18.50;7.38;;;;;;;;;;5057067;28;20067;-85
2022/03/21 06:21:52;;;;;;;17.15;7.97;;;;;;;;;;5033720;28;20060;-85
2022/03/21 06:24:20;;;;;;;13.10;6.55;;;;;;;;;;5055042;28;20033;-85
2022/03/21 06:26:48;;;;;;;16.27;7.50;;;;;;;;;;5058086;28;20140;-85
2022/03/21 06:29:16;;;;;;;15.13;7.95;;;;;;;;;;5048625;28;20120;-87
2022/03/21 06:31:44;;;;;;;17.90;7.85;;;;;;;;;;5061074;28;20108;-88
2022/03/21 06:34:13;;;;;;;18.58;7.65;;;;;;;;;;5024136;28;20197;-87
2022/03/21 06:36:40;;;;;;;14.30;7.50;;;;;;;;;;5040772;28;20047;-86
2022/03/21 06:39:08;;;;;;;17.25;7.63;;;;;;;;;;5060850;28;20123;-87
2022/03/21 06:41:37;;;;;;;14.90;7.10;;;;;;;;;;5047479;28;20040;-86
2022/03/21 06:44:05;;;;;;;16.17;7.80;;;;;;;;;;5055442;28;20040;-87
2022/03/21 06:46:32;;;;;;;16.13;7.75;;;;;;;;;;5062204;28;20041;-87
2022/03/21 06:49:00;;;;;;;19.85;7.70;;;;;;;;;;5045539;28;20091;-87
2022/03/21 06:51:28;;;;;;;15.77;7.00;;;;;;;;;;5057257;28;20068;-87
2022/03/21 06:53:56;;;;;;;17.50;7.40;;;;;;;;;;5054575;28;20053;-87
2022/03/21 06:56:29;;;;;;;21.13;7.78;;;;;;;;;;5039868;28;20416;-86
2022/03/21 06:58:56;;;;;;;19.67;7.57;;;;;;;;;;5050161;28;20177;-87
2022/03/21 07:01:25;;;;;;;14.95;7.47;;;;;;;;;;5060084;28;20039;-87
2022/03/21 07:03:52;;;;;;;18.13;7.57;;;;;;;;;;5057728;28;20576;-87
2022/03/21 07:06:20;;;;;;;17.77;8.23;;;;;;;;;;5062748;28;20028;-90
2022/03/21 07:08:51;;;;;;;16.90;7.72;;;;;;;;;;5044672;28;20078;-89
2022/03/21 07:11:20;;;;;;;17.85;7.75;;;;;;;;;;5052939;28;20032;-87
2022/03/21 07:13:49;;;;;;;17.98;8.00;;;;;;;;;;5042170;28;20495;-87
2022/03/21 07:16:16;;;;;;;13.25;7.22;;;;;;;;;;5058316;28;20148;-87
2022/03/21 07:18:45;;;;;;;17.77;7.95;;;;;;;;;;5056253;28;20040;-87
2022/03/21 07:21:13;;;;;;;19.80;8.60;;;;;;;;;;5059873;28;20063;-87
2022/03/21 07:23:40;;;;;;;13.93;7.65;;;;;;;;;;5059399;28;20219;-87
2022/03/21 07:26:08;;;;;;;17.35;8.07;;;;;;;;;;5058757;28;20174;-87
2022/03/21 07:28:36;;;;;;;15.82;7.60;;;;;;;;;;5044492;28;20590;-86
2022/03/21 07:31:24;;;;;;;18.58;9.02;;;;;;;;;;5053924;28;20105;-87
2022/03/21 07:33:52;;;;;;;20.58;8.77;;;;;;;;;;5052792;28;20052;-87
2022/03/21 07:36:20;;;;;;;16.42;8.13;;;;;;;;;;5040152;28;20080;-86
2022/03/21 07:38:54;;;;;;;17.65;7.40;;;;;;;;;;5017926;28;20524;-87
2022/03/21 07:41:26;;;;;;;16.58;7.68;;;;;;;;;;5052457;28;20055;-87
2022/03/21 07:43:56;;;;;;;15.02;7.57;;;;;;;;;;5044331;28;20115;-87
2022/03/21 07:49:12;;;;;;;15.98;8.25;;;;;;;;;;5055815;28;20037;-86
2022/03/21 07:51:43;;;;;;;18.10;8.05;;;;;;;;;;5051790;28;20048;-85
2022/03/21 07:54:12;;;;;;;19.88;9.38;;;;;;;;;;5055457;28;20127;-85
2022/03/21 07:56:41;;;;;;;15.90;8.13;;;;;;;;;;5041512;28;20135;-85
2022/03/21 07:59:08;;;;;;;14.80;7.68;;;;;;;;;;5055433;28;20055;-85
2022/03/21 08:01:37;;;;;;;15.55;8.18;;;;;;;;;;5046715;28;20084;-85
2022/03/21 08:04:06;;;;;;;17.83;8.07;;;;;;;;;;5038843;28;20163;-85
2022/03/21 08:06:34;;;;;;;17.30;7.88;;;;;;;;;;5052564;28;20627;-85
2022/03/21 08:09:02;;;;;;;15.88;8.07;;;;;;;;;;5052325;28;20037;-85
2022/03/21 08:11:30;;;;;;;13.80;7.93;;;;;;;;;;5057479;28;20052;-85
2022/03/21 08:13:58;;;;;;;15.13;8.65;;;;;;;;;;5037480;28;20056;-85
2022/03/21 08:16:26;;;;;;;16.25;8.15;;;;;;;;;;5031410;28;20879;-85
2022/03/21 08:18:54;;;;;;;16.48;8.43;;;;;;;;;;5055553;28;20066;-85
2022/03/21 08:21:22;;;;;;;17.83;8.52;;;;;;;;;;5059325;28;20140;-85
2022/03/21 08:23:50;;;;;;;15.02;8.18;;;;;;;;;;5054060;28;20063;-85
2022/03/21 08:26:18;;;;;;;13.52;7.97;;;;;;;;;;5057064;28;20067;-85
2022/03/21 08:28:47;;;;;;;17.92;9.05;;;;;;;;;;5059729;28;20136;-85
2022/03/21 08:31:14;;;;;;;20.55;8.40;;;;;;;;;;5042522;28;20050;-85
2022/03/21 08:33:42;;;;;;;16.27;8.40;;;;;;;;;;5055445;28;20529;-85
2022/03/21 08:36:12;;;;;;;17.85;8.65;;;;;;;;;;5040933;28;20070;-87
2022/03/21 08:38:40;;;;;;;15.02;7.68;;;;;;;;;;5040091;28;20568;-86
2022/03/21 08:41:08;;;;;;;16.20;9.18;;;;;;;;;;5046387;28;20181;-86
2022/03/21 08:43:36;;;;;;;16.65;8.95;;;;;;;;;;5058832;28;20041;-86
2022/03/21 08:46:04;;;;;;;19.58;7.90;;;;;;;;;;5058545;28;20037;-85
2022/03/21 08:51:38;;;;;;;13.32;7.07;;;;;;;;;;5057439;28;20106;-87
2022/03/21 08:54:07;;;;;;;17.05;7.63;;;;;;;;;;5061191;28;20044;-87
2022/03/21 08:56:34;;;;;;;15.38;8.68;;;;;;;;;;5040088;28;20036;-87
2022/03/21 08:59:02;;;;;;;16.27;8.25;;;;;;;;;;5049914;28;20184;-87
2022/03/21 09:01:31;;;;;;;15.80;8.38;;;;;;;;;;5058348;28;20183;-87
2022/03/21 09:04:02;;;;;;;14.25;8.05;;;;;;;;;;5059185;28;20088;-87
2022/03/21 09:06:32;;;;;;;16.52;8.23;;;;;;;;;;5057590;28;20815;-87
2022/03/21 09:09:00;;;;;;;16.30;8.85;;;;;;;;;;5043573;28;20041;-87
2022/03/21 09:11:28;;;;;;;15.27;8.32;;;;;;;;;;5059695;28;20578;-87
2022/03/21 09:13:56;;;;;;;13.65;7.75;;;;;;;;;;5048289;28;20382;-87
2022/03/21 09:16:24;;;;;;;15.90;8.38;;;;;;;;;;5038876;28;20028;-87
2022/03/21 09:18:52;;;;;;;17.92;8.88;;;;;;;;;;5041327;28;20049;-87
2022/03/21 09:21:20;;;;;;;18.83;9.05;;;;;;;;;;5039712;28;20113;-87
2022/03/21 09:23:48;;;;;;;17.30;8.93;;;;;;;;;;5046123;28;20048;-87
2022/03/21 09:26:16;;;;;;;16.55;9.57;;;;;;;;;;5060322;28;20036;-87
2022/03/21 09:28:45;;;;;;;17.05;9.18;;;;;;;;;;5056064;28;20045;-87
2022/03/21 09:31:13;;;;;;;17.85;8.52;;;;;;;;;;5038982;28;20052;-87
2022/03/21 09:34:00;;;;;;;16.90;7.78;;;;;;;;;;5059631;28;20194;-88
2022/03/21 09:36:28;;;;;;;16.58;9.05;;;;;;;;;;5048844;28;20043;-87
2022/03/21 09:38:56;;;;;;;17.23;8.45;;;;;;;;;;5057854;28;20044;-88
2022/03/21 09:41:26;;;;;;;14.52;9.05;;;;;;;;;;5057316;28;20833;-88
2022/03/21 09:43:57;;;;;;;14.15;7.63;;;;;;;;;;5057913;28;20053;-86
2022/03/21 09:46:24;;;;;;;18.40;8.75;;;;;;;;;;5051152;28;20136;-86
2022/03/21 09:48:54;;;;;;;15.73;8.27;;;;;;;;;;5058086;28;20041;-86
2022/03/21 09:51:24;;;;;;;20.02;9.38;;;;;;;;;;5060194;28;20731;-86
2022/03/21 09:53:54;;;;;;;14.38;8.38;;;;;;;;;;5051819;28;20037;-86
2022/03/21 09:56:27;;;;;;;17.25;8.80;;;;;;;;;;5044866;28;20120;-86
2022/03/21 09:59:00;;;;;;;12.18;6.05;;;;;;;;;;5038091;28;20068;-86
2022/03/21 10:01:30;;;;;;;16.00;9.07;;;;;;;;;;5061949;28;20045;-86
2022/03/21 10:03:59;;;;;;;20.10;8.82;;;;;;;;;;5059377;28;20131;-85
2022/03/21 10:06:35;;;;;;;14.23;8.07;;;;;;;;;;5058693;28;20049;-86
2022/03/21 10:09:19;;;;;;;18.30;8.82;;;;;;;;;;5041783;28;20783;-86
2022/03/21 10:11:53;;;;;;;18.15;10.00;;;;;;;;;;5038950;28;20118;-86
2022/03/21 10:14:35;;;;;;;15.77;8.63;;;;;;;;;;5036355;28;20110;-86
2022/03/21 10:17:11;;;;;;;13.75;8.35;;;;;;;;;;5056081;28;20039;-86
2022/03/21 10:19:53;;;;;;;14.15;8.23;;;;;;;;;;5055328;28;20127;-86
2022/03/21 10:22:22;;;;;;;16.80;8.93;;;;;;;;;;5052171;28;20099;-86
2022/03/21 10:24:52;;;;;;;11.68;6.60;;;;;;;;;;5051294;28;20558;-86
2022/03/21 10:27:38;;;;;;;14.05;9.02;;;;;;;;;;5056879;28;20033;-86
2022/03/21 10:30:15;;;;;;;15.75;9.10;;;;;;;;;;5033629;28;20040;-86
2022/03/21 10:32:50;;;;;;;13.02;7.68;;;;;;;;;;5053294;28;20107;-86
2022/03/21 10:35:22;;;;;;;15.63;8.65;;;;;;;;;;5038652;28;20044;-86
2022/03/21 10:37:56;;;;;;;14.48;8.20;;;;;;;;;;5034510;28;20463;-86
2022/03/21 10:40:30;;;;;;;17.40;9.27;;;;;;;;;;5047309;28;20051;-86
2022/03/21 10:43:05;;;;;;;14.45;8.70;;;;;;;;;;5054715;28;20040;-86
2022/03/21 10:45:38;;;;;;;15.20;9.07;;;;;;;;;;5040952;28;20037;-87
2022/03/21 10:48:12;;;;;;;15.50;9.10;;;;;;;;;;5041467;28;20028;-85
2022/03/21 10:50:43;;;;;;;17.88;9.05;;;;;;;;;;5056232;28;20092;-84
2022/03/21 10:53:12;;;;;;;19.10;8.90;;;;;;;;;;5037619;28;20048;-85
2022/03/21 10:55:43;;;;;;;14.55;8.35;;;;;;;;;;5057895;28;20079;-86
2022/03/21 10:58:12;;;;;;;17.60;9.40;;;;;;;;;;5041117;28;20490;-85
2022/03/21 11:00:41;;;;;;;17.83;8.48;;;;;;;;;;5039247;28;20634;-85
2022/03/21 11:03:13;;;;;;;12.38;7.10;;;;;;;;;;5057235;28;20064;-84
2022/03/21 11:05:43;;;;;;;16.85;9.23;;;;;;;;;;5057925;28;20052;-86
2022/03/21 11:08:13;;;;;;;16.30;8.77;;;;;;;;;;5057459;28;20037;-87
2022/03/21 11:10:41;;;;;;;15.88;9.40;;;;;;;;;;5039351;28;20041;-85
2022/03/21 11:13:09;;;;;;;15.80;8.70;;;;;;;;;;5042589;28;20122;-87
2022/03/21 11:15:38;;;;;;;13.95;8.32;;;;;;;;;;5059090;28;20044;-88
2022/03/21 11:18:07;;;;;;;17.17;7.90;;;;;;;;;;5059234;28;20048;-87
2022/03/21 11:20:34;;;;;;;18.33;8.63;;;;;;;;;;5047538;28;20048;-87
2022/03/21 11:23:03;;;;;;;13.20;7.63;;;;;;;;;;5056379;28;20055;-88
2022/03/21 11:25:33;;;;;;;17.38;8.38;;;;;;;;;;5057383;28;20059;-87
2022/03/21 11:28:15;;;;;;;19.20;8.98;;;;;;;;;;5060079;28;20047;-87
2022/03/21 11:31:00;;;;;;;17.00;7.18;;;;;;;;;;5057450;28;20044;-87
2022/03/21 11:33:40;;;;;;;17.50;9.00;;;;;;;;;;5057211;28;20159;-87
2022/03/21 11:36:11;;;;;;;15.38;8.73;;;;;;;;;;5060572;28;20382;-87
2022/03/21 11:38:46;;;;;;;16.67;9.70;;;;;;;;;;5058314;28;20056;-87
2022/03/21 11:41:14;;;;;;;16.77;9.00;;;;;;;;;;5060714;28;20044;-87
2022/03/21 11:43:45;;;;;;;15.68;8.63;;;;;;;;;;5060111;28;20037;-87
2022/03/21 11:46:20;;;;;;;17.33;8.70;;;;;;;;;;5061708;28;20088;-87
2022/03/21 11:48:48;;;;;;;19.58;9.50;;;;;;;;;;5057069;28;20048;-87
2022/03/21 11:51:16;;;;;;;14.57;9.00;;;;;;;;;;5062391;28;20043;-88
2022/03/21 11:53:46;;;;;;;21.92;9.00;;;;;;;;;;5040116;28;20119;-87
2022/03/21 11:56:35;;;;;;;19.05;10.00;;;;;;;;;;5062781;28;20055;-87
2022/03/21 11:59:03;;;;;;;18.55;8.48;;;;;;;;;;5041286;28;20045;-85
2022/03/21 12:01:30;;;;;;;15.50;8.95;;;;;;;;;;5053945;28;20124;-85
2022/03/21 12:04:23;;;;;;;16.20;9.13;;;;;;;;;;5045560;28;20044;-85
2022/03/21 12:06:51;;;;;;;16.30;9.52;;;;;;;;;;5059098;28;20048;-85
2022/03/21 12:09:20;;;;;;;14.48;7.50;;;;;;;;;;5040378;28;20666;-85
2022/03/21 12:11:48;;;;;;;15.25;9.88;;;;;;;;;;5059963;28;20102;-85
2022/03/21 12:14:20;;;;;;;14.55;7.75;;;;;;;;;;5057373;28;20036;-87
2022/03/21 12:17:00;;;;;;;19.38;9.55;;;;;;;;;;5043623;28;20435;-88
2022/03/21 12:20:02;;;;;;;14.00;7.18;;;;;;;;;;5058914;28;20041;-87
2022/03/21 12:22:53;;;;;;;17.38;9.63;;;;;;;;;;5040345;28;20058;-88
2022/03/21 12:25:29;;;;;;;13.68;8.13;;;;;;;;;;5057892;28;20068;-88
2022/03/21 12:27:59;;;;;;;18.17;10.02;;;;;;;;;;5050110;28;20040;-87
2022/03/21 12:30:32;;;;;;;14.45;7.90;;;;;;;;;;5059877;28;20029;-87
2022/03/21 12:33:05;;;;;;;15.80;9.65;;;;;;;;;;5060114;28;20045;-88
2022/03/21 12:35:32;;;;;;;15.70;8.95;;;;;;;;;;5048662;28;20048;-88
2022/03/21 12:38:32;;;;;;;16.17;9.52;;;;;;;;;;5059029;28;20122;-88
2022/03/21 12:41:08;;;;;;;15.82;8.73;;;;;;;;;;5060174;28;20040;-88
2022/03/21 12:43:51;;;;;;;18.25;10.02;;;;;;;;;;5057637;28;20135;-88
2022/03/21 12:46:20;;;;;;;14.05;7.15;;;;;;;;;;5023418;28;20044;-88
2022/03/21 12:49:01;;;;;;;16.25;9.77;;;;;;;;;;5060284;28;20036;-88
2022/03/21 12:51:32;;;;;;;16.05;8.60;;;;;;;;;;5047062;28;20056;-85
2022/03/21 12:54:21;;;;;;;15.50;9.50;;;;;;;;;;5057285;28;20171;-85
2022/03/21 12:56:50;;;;;;;15.80;7.93;;;;;;;;;;5012688;28;20492;-85
2022/03/21 12:59:24;;;;;;;17.05;8.85;;;;;;;;;;5029379;28;20151;-85
2022/03/21 13:01:56;;;;;;;19.02;10.18;;;;;;;;;;5055329;28;20064;-85
2022/03/21 13:12:44;;;;;;;15.63;8.75;;;;;;;;;;5050288;28;20051;-85
2022/03/21 13:15:14;;;;;;;16.13;10.15;;;;;;;;;;5063536;28;20573;-85
2022/03/21 13:17:46;;;;;;;14.48;8.60;;;;;;;;;;5062607;28;20084;-85
2022/03/21 13:23:07;;;;;;;15.77;8.60;;;;;;;;;;4980631;28;20527;-86
2022/03/21 13:25:40;;;;;;;16.67;9.45;;;;;;;;;;4965730;28;20229;-86
2022/03/21 13:28:19;;;;;;;17.27;10.05;;;;;;;;;;4977722;28;20073;-86
2022/03/21 13:31:02;;;;;;;18.05;9.65;;;;;;;;;;4965159;28;20046;-86
2022/03/21 13:33:32;;;;;;;14.90;9.07;;;;;;;;;;4977121;28;20082;-86
2022/03/21 13:36:06;;;;;;;15.27;8.68;;;;;;;;;;4967481;28;20053;-86
2022/03/21 13:38:37;;;;;;;15.45;9.35;;;;;;;;;;4965052;28;20116;-85
2022/03/21 13:41:18;;;;;;;16.42;9.07;;;;;;;;;;4964333;28;20046;-85
2022/03/21 13:44:05;;;;;;;20.45;9.60;;;;;;;;;;4963498;28;20141;-86
2022/03/21 13:46:32;;;;;;;16.98;9.05;;;;;;;;;;4979116;28;20073;-84
2022/03/21 13:49:00;;;;;;;17.45;9.05;;;;;;;;;;4968910;28;20164;-84
2022/03/21 13:51:29;;;;;;;9.60;5.90;;;;;;;;;;4978834;28;20072;-85
2022/03/21 13:54:15;;;;;;;15.32;8.32;;;;;;;;;;4979584;28;20393;-85
2022/03/21 13:56:46;;;;;;;18.67;9.63;;;;;;;;;;4978272;28;20438;-84
2022/03/21 13:59:16;;;;;;;18.48;10.07;;;;;;;;;;4971981;28;20051;-85
2022/03/21 14:01:45;;;;;;;17.67;10.05;;;;;;;;;;5059635;28;20422;-86
2022/03/21 14:04:24;;;;;;;15.70;8.90;;;;;;;;;;5060379;28;20184;-87
2022/03/21 14:07:03;;;;;;;18.88;9.82;;;;;;;;;;5059552;28;20041;-85
2022/03/21 14:09:32;;;;;;;16.48;9.15;;;;;;;;;;5059368;28;20033;-84
2022/03/21 14:12:06;;;;;;;14.40;8.52;;;;;;;;;;5058422;28;20132;-85
2022/03/21 14:14:35;;;;;;;16.15;8.90;;;;;;;;;;5058594;28;20954;-85
2022/03/21 14:17:04;;;;;;;17.55;10.15;;;;;;;;;;5057340;28;20040;-85
2022/03/21 14:19:36;;;;;;;17.02;9.30;;;;;;;;;;5045336;28;20055;-85
2022/03/21 14:22:04;;;;;;;16.77;9.52;;;;;;;;;;5039576;28;20405;-85
2022/03/21 14:24:32;;;;;;;17.55;8.98;;;;;;;;;;5058848;28;20033;-86
2022/03/21 14:27:00;;;;;;;14.25;9.10;;;;;;;;;;5054836;28;20123;-86
2022/03/21 14:29:28;;;;;;;15.50;9.55;;;;;;;;;;5058290;28;20738;-86
2022/03/21 14:31:56;;;;;;;18.63;9.65;;;;;;;;;;5059558;28;20064;-84
2022/03/21 14:34:25;;;;;;;14.13;8.75;;;;;;;;;;5030653;28;20052;-84
2022/03/21 14:36:54;;;;;;;17.50;9.40;;;;;;;;;;5031135;28;20041;-84
2022/03/21 14:39:22;;;;;;;16.48;8.93;;;;;;;;;;5060195;28;20482;-84
2022/03/21 14:41:50;;;;;;;16.00;8.60;;;;;;;;;;5043748;28;20048;-84
2022/03/21 14:44:22;;;;;;;18.98;9.43;;;;;;;;;;5031095;28;20049;-83
2022/03/21 14:46:51;;;;;;;16.70;9.02;;;;;;;;;;5034209;28;20102;-83
2022/03/21 14:49:19;;;;;;;18.40;9.85;;;;;;;;;;5045276;28;20388;-84
2022/03/21 14:51:48;;;;;;;17.10;9.07;;;;;;;;;;5049777;28;20385;-83
2022/03/21 14:54:16;;;;;;;16.75;8.98;;;;;;;;;;5062125;28;20385;-83
2022/03/21 14:56:47;;;;;;;18.00;8.38;;;;;;;;;;5017185;28;20055;-83
2022/03/21 14:59:14;;;;;;;16.40;8.65;;;;;;;;;;5047017;28;20045;-83
2022/03/21 15:01:43;;;;;;;16.17;9.55;;;;;;;;;;5048307;28;20033;-83
2022/03/21 15:04:10;;;;;;;16.63;9.43;;;;;;;;;;5025762;28;20049;-83
2022/03/21 15:06:38;;;;;;;14.50;8.88;;;;;;;;;;5048099;28;20526;-83
2022/03/21 15:09:06;;;;;;;14.60;8.80;;;;;;;;;;5060121;28;20132;-84
2022/03/21 15:11:34;;;;;;;15.50;9.02;;;;;;;;;;5042273;28;20139;-84
2022/03/21 15:14:02;;;;;;;13.73;8.32;;;;;;;;;;5059594;28;20059;-84
2022/03/21 15:16:30;;;;;;;15.20;8.75;;;;;;;;;;5058895;28;20036;-84
2022/03/21 15:18:58;;;;;;;16.20;7.72;;;;;;;;;;5043548;28;20099;-84